Lighthouse Point, Florida
Current Conditions -  °F | °C
As of 1:53 AM on Thursday 27 Nov 2014 (Local Time) from KPMP Reporting Station
Clear Clear  
Wind Chill: 57°   Ceiling: Unl
Heat Index: 57°   Visibility: 10mi
Dew Point: 45°   Wind: 14mph
Humidity: 64%   Direction: 330°NNW
Pressure: 30.17"   Gusts: NA
Location:  26.28°N, 80.09°W
Report Text: KPMP 270653Z AUTO 33012KT 10SM CLR 14/07 A3017 RMK AO2 SLP218 T01390072
Loading
Personal Weather Stations






























Interactive Weather Map New forecast layout! Learn more

10-Day Weather Forecast

Advertisements
Track Severe Weather on mobile